Time;durP1;ratioP1;P1;durP2;ratioP2;P2;SDS_P1;SDS_P2;PMS_P1;PMS_P2;Temp;Humidity;BMP_temperature;BMP_pressure;BME280_temperature;BME280_humidity;BME280_pressure;Samples;Min_cycle;Max_cycle;Signal;HPM_P1;HPM_P2
2022/12/03 00:00:51;;;;;;;33.95;18.88;;;8.00;61.60;;;;;;5071825;28;20052;-71
2022/12/03 00:03:17;;;;;;;29.85;19.27;;;8.00;61.50;;;;;;5065660;28;20033;-72
2022/12/03 00:05:43;;;;;;;30.77;18.95;;;8.00;61.50;;;;;;5057692;28;20020;-72
2022/12/03 00:08:08;;;;;;;32.45;19.38;;;8.00;61.40;;;;;;5075480;28;20512;-72
2022/12/03 00:10:34;;;;;;;29.20;18.08;;;8.00;61.30;;;;;;5057410;28;20020;-72
2022/12/03 00:13:00;;;;;;;28.65;17.90;;;8.00;61.20;;;;;;5075125;28;20048;-72
2022/12/03 00:15:26;;;;;;;30.15;19.08;;;8.00;61.20;;;;;;5075512;28;20050;-72
2022/12/03 00:17:52;;;;;;;31.35;19.40;;;8.00;61.40;;;;;;5075506;28;20031;-72
2022/12/03 00:20:20;;;;;;;30.10;19.02;;;8.00;61.50;;;;;;5058318;28;20392;-71
2022/12/03 00:22:49;;;;;;;32.47;18.80;;;8.00;61.40;;;;;;5075857;28;20032;-71
2022/12/03 00:25:15;;;;;;;28.08;18.33;;;8.00;61.40;;;;;;5075801;28;20028;-71
2022/12/03 00:27:41;;;;;;;29.52;17.95;;;7.90;61.30;;;;;;5075972;28;20078;-71
2022/12/03 00:30:08;;;;;;;32.28;19.60;;;7.90;61.30;;;;;;5067762;28;20032;-72
2022/12/03 00:32:34;;;;;;;33.90;19.80;;;7.90;61.20;;;;;;5056162;28;20427;-72
2022/12/03 00:35:01;;;;;;;31.70;19.17;;;7.90;61.10;;;;;;5055369;28;20025;-72
2022/12/03 00:37:27;;;;;;;30.20;18.88;;;7.90;61.20;;;;;;5076224;28;20025;-71
2022/12/03 00:39:53;;;;;;;31.45;18.83;;;7.90;61.40;;;;;;5076194;28;20375;-72
2022/12/03 00:42:18;;;;;;;31.13;19.33;;;7.80;62.20;;;;;;5076088;28;20479;-72
2022/12/03 00:44:45;;;;;;;30.08;17.42;;;7.80;61.40;;;;;;5075809;28;20024;-72
2022/12/03 00:47:11;;;;;;;30.27;17.60;;;7.80;61.60;;;;;;5076096;28;20035;-72
2022/12/03 00:49:37;;;;;;;32.58;18.45;;;7.80;61.60;;;;;;5076055;28;20060;-72
2022/12/03 00:52:06;;;;;;;31.65;19.40;;;7.80;61.70;;;;;;5075716;28;20465;-72
2022/12/03 00:54:31;;;;;;;30.30;18.42;;;7.80;61.70;;;;;;5057999;28;20440;-72
2022/12/03 00:56:57;;;;;;;28.63;16.95;;;7.80;61.80;;;;;;5075841;28;20107;-71
2022/12/03 00:59:23;;;;;;;31.92;18.27;;;7.80;61.80;;;;;;5073379;28;20049;-72
2022/12/03 01:01:49;;;;;;;30.92;18.17;;;7.80;61.70;;;;;;5037801;28;20055;-72
2022/12/03 01:04:15;;;;;;;29.02;17.02;;;7.90;61.70;;;;;;5055722;28;20458;-71
2022/12/03 01:06:41;;;;;;;28.58;17.33;;;7.80;61.60;;;;;;5037788;28;20021;-72
2022/12/03 01:09:06;;;;;;;31.50;18.98;;;7.90;61.60;;;;;;5055652;28;20412;-72
2022/12/03 01:11:38;;;;;;;29.52;17.15;;;7.90;61.60;;;;;;5037752;28;20083;-71
2022/12/03 01:14:06;;;;;;;28.90;17.55;;;7.90;61.50;;;;;;5055308;28;20492;-72
2022/12/03 01:16:33;;;;;;;35.80;18.20;;;7.90;61.60;;;;;;5055496;28;20040;-71
2022/12/03 01:19:00;;;;;;;29.10;17.63;;;7.90;61.50;;;;;;5037910;28;20035;-71
2022/12/03 01:21:27;;;;;;;25.38;15.43;;;7.90;61.40;;;;;;5055105;28;20108;-71
2022/12/03 01:23:53;;;;;;;30.15;17.73;;;7.90;61.30;;;;;;5055284;28;20032;-72
2022/12/03 01:26:19;;;;;;;34.13;18.05;;;7.90;61.30;;;;;;5037434;28;20021;-72
2022/12/03 01:28:45;;;;;;;30.15;17.35;;;7.90;61.30;;;;;;5037342;28;20501;-71
2022/12/03 01:33:57;;;;;;;29.13;16.50;;;7.80;61.30;;;;;;5055265;28;20445;-72
2022/12/03 01:36:26;;;;;;;28.83;15.77;;;7.80;61.30;;;;;;5037203;28;20064;-72
2022/12/03 01:38:57;;;;;;;27.63;16.45;;;7.80;61.40;;;;;;5054793;28;20028;-71
2022/12/03 01:41:27;;;;;;;27.80;17.02;;;7.80;61.50;;;;;;5055049;28;20068;-72
2022/12/03 01:43:59;;;;;;;29.67;17.20;;;7.80;61.50;;;;;;5054700;28;20043;-72
2022/12/03 01:46:31;;;;;;;28.40;17.30;;;7.80;61.50;;;;;;5036899;28;20082;-71
2022/12/03 01:49:00;;;;;;;29.27;16.92;;;7.90;61.50;;;;;;5054956;28;20025;-72
2022/12/03 01:51:26;;;;;;;27.42;16.10;;;7.90;61.50;;;;;;5054503;28;20556;-71
2022/12/03 01:53:54;;;;;;;27.55;16.23;;;7.90;61.50;;;;;;5036861;28;20137;-71
2022/12/03 01:56:23;;;;;;;24.77;15.43;;;7.90;61.50;;;;;;5054412;28;20021;-71
2022/12/03 01:58:51;;;;;;;30.27;16.73;;;7.90;61.40;;;;;;5054651;28;20021;-71
2022/12/03 02:01:20;;;;;;;26.95;16.48;;;7.90;61.20;;;;;;5071417;28;20498;-72
2022/12/03 02:03:48;;;;;;;25.80;15.43;;;7.90;61.10;;;;;;5074385;28;20108;-72
2022/12/03 02:06:23;;;;;;;25.15;15.85;;;7.90;61.00;;;;;;5056469;28;20033;-72
2022/12/03 02:08:49;;;;;;;27.88;16.40;;;7.80;61.00;;;;;;5074719;28;20020;-71
2022/12/03 02:11:39;;;;;;;26.63;15.43;;;7.80;60.80;;;;;;5074066;28;20471;-71
2022/12/03 02:14:09;;;;;;;28.77;16.08;;;7.80;60.60;;;;;;5074557;28;20029;-71
2022/12/03 02:16:36;;;;;;;25.48;14.73;;;7.80;60.50;;;;;;5074198;28;20107;-71
2022/12/03 02:19:09;;;;;;;21.35;13.65;;;7.70;61.10;;;;;;5074161;28;20035;-72
2022/12/03 02:22:03;;;;;;;23.80;13.70;;;7.70;60.40;;;;;;5073818;28;20020;-72
2022/12/03 02:24:31;;;;;;;22.83;13.65;;;7.70;60.40;;;;;;5074118;28;20037;-72
2022/12/03 02:26:57;;;;;;;21.33;12.95;;;7.70;60.40;;;;;;5056074;28;20022;-72
2022/12/03 02:29:24;;;;;;;23.67;13.65;;;7.70;60.30;;;;;;5073583;28;20107;-72
2022/12/03 02:31:49;;;;;;;22.08;13.43;;;7.70;60.10;;;;;;5036217;28;20021;-71
2022/12/03 02:34:34;;;;;;;22.23;14.00;;;7.70;60.10;;;;;;5053978;28;20083;-71
2022/12/03 02:37:00;;;;;;;24.67;15.25;;;7.70;60.00;;;;;;5053891;28;20112;-72
2022/12/03 02:39:26;;;;;;;24.80;15.57;;;7.60;59.90;;;;;;5053847;28;20354;-72
2022/12/03 02:44:39;;;;;;;24.33;13.75;;;7.60;59.70;;;;;;5053590;28;20117;-71
2022/12/03 02:47:05;;;;;;;25.27;15.50;;;7.60;59.80;;;;;;5035863;28;20029;-72
2022/12/03 02:49:31;;;;;;;25.75;15.15;;;7.60;59.80;;;;;;5053698;28;20033;-72
2022/12/03 02:51:57;;;;;;;26.63;15.57;;;7.60;59.90;;;;;;5053367;28;20031;-71
2022/12/03 02:54:23;;;;;;;24.70;15.13;;;7.60;59.90;;;;;;5035622;28;20032;-71
2022/12/03 02:56:49;;;;;;;24.58;14.32;;;7.50;59.80;;;;;;5034724;28;20025;-71
2022/12/03 02:59:15;;;;;;;27.85;15.75;;;7.50;59.70;;;;;;5053238;28;20032;-72
2022/12/03 03:01:41;;;;;;;23.75;13.60;;;7.50;59.80;;;;;;5053364;28;20033;-71
2022/12/03 03:04:07;;;;;;;28.33;14.85;;;7.50;60.00;;;;;;5035499;28;20536;-71
2022/12/03 03:06:33;;;;;;;24.77;14.48;;;7.50;60.10;;;;;;5053718;28;20029;-71
2022/12/03 03:08:59;;;;;;;21.50;13.80;;;7.40;60.10;;;;;;5053453;28;20063;-71
2022/12/03 03:11:26;;;;;;;24.58;14.60;;;7.50;60.10;;;;;;5052047;28;20022;-71
2022/12/03 03:13:51;;;;;;;22.75;12.95;;;7.40;60.10;;;;;;5035565;28;20366;-72
2022/12/03 03:16:17;;;;;;;24.17;13.60;;;7.40;60.20;;;;;;5053343;28;20032;-71
2022/12/03 03:18:43;;;;;;;24.52;15.05;;;7.50;60.40;;;;;;5035464;28;20029;-71
2022/12/03 03:21:09;;;;;;;23.58;14.48;;;7.40;60.10;;;;;;5035393;28;20025;-72
2022/12/03 03:23:35;;;;;;;24.05;14.63;;;7.50;60.30;;;;;;5035391;28;20029;-72
2022/12/03 03:26:05;;;;;;;24.00;14.68;;;7.40;60.30;;;;;;5053139;28;20029;-75
2022/12/03 03:28:38;;;;;;;23.00;13.57;;;7.50;60.40;;;;;;5053198;28;20022;-72
2022/12/03 03:31:09;;;;;;;24.42;12.90;;;7.50;60.40;;;;;;5052747;28;20032;-72
2022/12/03 03:33:41;;;;;;;22.50;15.10;;;7.50;60.40;;;;;;5073316;28;20025;-72
2022/12/03 03:36:07;;;;;;;28.92;15.15;;;7.50;60.20;;;;;;5073255;28;20033;-74
2022/12/03 03:38:34;;;;;;;21.67;14.05;;;7.50;60.20;;;;;;5072894;28;20032;-74
2022/12/03 03:41:02;;;;;;;19.50;12.30;;;7.50;60.10;;;;;;5072962;28;20029;-74
2022/12/03 03:43:32;;;;;;;19.95;12.70;;;7.50;60.20;;;;;;5055175;28;20037;-75
2022/12/03 03:45:58;;;;;;;21.00;12.82;;;7.50;60.10;;;;;;5055094;28;20487;-74
2022/12/03 03:48:24;;;;;;;20.48;12.63;;;7.50;60.00;;;;;;5055185;28;20531;-73
2022/12/03 03:50:53;;;;;;;19.65;12.05;;;7.50;59.90;;;;;;5055126;28;20124;-72
2022/12/03 03:53:27;;;;;;;21.95;12.05;;;7.50;60.00;;;;;;5072776;28;20537;-73
2022/12/03 03:55:53;;;;;;;21.42;12.68;;;7.50;59.90;;;;;;5054953;28;20063;-73
2022/12/03 03:58:19;;;;;;;16.77;11.25;;;7.50;60.00;;;;;;5072931;28;20056;-73
2022/12/03 04:00:46;;;;;;;18.92;12.10;;;7.60;60.20;;;;;;5072297;28;20060;-73
2022/12/03 04:03:12;;;;;;;18.55;11.10;;;7.60;60.10;;;;;;5069874;28;20491;-73
2022/12/03 04:05:41;;;;;;;16.05;10.57;;;7.60;60.10;;;;;;5068963;28;20082;-73
2022/12/03 04:08:09;;;;;;;20.15;12.80;;;7.60;60.10;;;;;;5074181;28;20023;-73
2022/12/03 04:13:27;;;;;;;18.55;10.88;;;7.60;60.00;;;;;;5076657;28;20376;-73
2022/12/03 04:15:55;;;;;;;20.77;12.80;;;7.60;60.00;;;;;;5075893;28;20028;-73
2022/12/03 04:18:41;;;;;;;20.45;12.45;;;7.60;60.00;;;;;;5076333;28;20020;-73
2022/12/03 04:24:05;;;;;;;;;;;7.60;59.90;;;;;;5076316;28;20058;-73
2022/12/03 04:29:21;;;;;;;20.50;12.00;;;7.60;59.70;;;;;;5056458;28;20032;-73
2022/12/03 04:37:20;;;;;;;21.98;12.65;;;7.60;59.90;;;;;;5075715;28;20470;-73
2022/12/03 04:39:49;;;;;;;23.08;12.45;;;7.60;59.80;;;;;;5075930;28;20021;-73
2022/12/03 04:42:17;;;;;;;19.67;12.00;;;7.60;59.80;;;;;;5075571;28;20486;-73
2022/12/03 04:44:43;;;;;;;18.52;11.13;;;7.60;59.90;;;;;;5057583;28;20028;-73
2022/12/03 04:47:19;;;;;;;17.67;11.70;;;7.60;60.00;;;;;;5057776;28;20028;-73
2022/12/03 04:49:49;;;;;;;19.88;11.73;;;7.70;60.00;;;;;;5075747;28;20047;-72
2022/12/03 04:52:17;;;;;;;19.20;12.10;;;7.70;60.00;;;;;;5057490;28;20383;-73
2022/12/03 04:54:44;;;;;;;18.13;11.65;;;7.70;59.90;;;;;;5075634;28;20055;-73
2022/12/03 04:57:14;;;;;;;18.10;11.35;;;7.70;59.80;;;;;;5075328;28;20046;-73
2022/12/03 04:59:42;;;;;;;19.90;12.32;;;7.70;59.90;;;;;;5074626;28;20041;-73
2022/12/03 05:02:08;;;;;;;17.83;11.60;;;7.70;59.90;;;;;;5075056;28;20064;-73
2022/12/03 05:04:37;;;;;;;16.67;10.73;;;7.70;59.90;;;;;;5075684;28;20104;-73
2022/12/03 05:07:06;;;;;;;18.83;11.82;;;7.70;59.80;;;;;;5075427;28;20056;-73
2022/12/03 05:09:32;;;;;;;18.92;11.43;;;7.70;59.80;;;;;;5057286;28;20042;-73
2022/12/03 05:11:58;;;;;;;21.17;12.45;;;7.80;59.70;;;;;;5057198;28;20039;-73
2022/12/03 05:14:24;;;;;;;24.05;12.10;;;7.80;59.50;;;;;;5074008;28;20029;-73
2022/12/03 05:16:50;;;;;;;20.15;11.73;;;7.70;59.50;;;;;;5072619;28;20019;-73
2022/12/03 05:19:19;;;;;;;20.23;11.60;;;7.80;59.60;;;;;;5073019;28;20020;-73
2022/12/03 05:21:49;;;;;;;23.77;12.73;;;7.80;59.70;;;;;;5073909;28;20056;-73
2022/12/03 05:24:18;;;;;;;21.85;11.55;;;7.80;59.60;;;;;;5055853;28;20037;-73
2022/12/03 05:26:44;;;;;;;32.63;13.15;;;7.80;59.60;;;;;;5073481;28;20052;-73
2022/12/03 05:29:10;;;;;;;26.73;13.95;;;7.80;59.40;;;;;;5050948;28;20443;-73
2022/12/03 05:31:35;;;;;;;26.05;13.52;;;7.80;59.20;;;;;;5073154;28;20113;-72
2022/12/03 05:34:03;;;;;;;27.20;12.80;;;7.70;59.10;;;;;;5073144;28;20025;-73
2022/12/03 05:36:32;;;;;;;20.55;12.10;;;7.70;58.90;;;;;;5071507;28;20033;-73
2022/12/03 05:39:03;;;;;;;19.17;10.88;;;7.70;59.10;;;;;;5052659;28;20556;-73
2022/12/03 05:44:15;;;;;;;;;;;7.70;59.30;;;;;;5072204;28;20036;-73
2022/12/03 05:46:44;;;;;;;20.90;12.60;;;7.70;59.50;;;;;;5055433;28;19905;-73
2022/12/03 05:49:13;;;;;;;21.35;12.32;;;7.70;59.10;;;;;;5070389;28;20104;-73
2022/12/03 05:51:41;;;;;;;19.52;12.50;;;7.60;59.10;;;;;;5070134;28;20060;-73
2022/12/03 05:54:10;;;;;;;17.73;11.02;;;7.60;59.20;;;;;;5053013;28;20029;-73
2022/12/03 05:56:35;;;;;;;17.10;11.38;;;7.60;59.30;;;;;;5055153;28;20120;-73
2022/12/03 05:59:04;;;;;;;17.90;11.82;;;7.60;59.30;;;;;;5049457;28;20373;-73
2022/12/03 06:01:30;;;;;;;18.50;10.90;;;7.60;59.30;;;;;;5043311;28;20045;-73
2022/12/03 06:03:55;;;;;;;20.45;12.63;;;7.60;59.40;;;;;;5046286;28;20384;-73
2022/12/03 06:06:21;;;;;;;22.13;13.00;;;7.60;59.50;;;;;;5041808;28;20072;-72
2022/12/03 06:08:50;;;;;;;20.58;12.40;;;7.60;59.20;;;;;;5044414;28;20071;-73
2022/12/03 06:11:18;;;;;;;18.70;11.52;;;7.60;59.10;;;;;;5046912;28;20492;-73
2022/12/03 06:13:44;;;;;;;22.08;14.13;;;7.60;59.20;;;;;;5040321;28;20021;-73
2022/12/03 06:16:15;;;;;;;31.15;16.25;;;7.60;59.20;;;;;;5029122;28;20375;-73
2022/12/03 06:18:41;;;;;;;27.10;15.60;;;7.60;59.20;;;;;;5023869;28;20025;-72
2022/12/03 06:21:11;;;;;;;30.10;14.48;;;7.60;59.10;;;;;;5046425;28;20086;-72
2022/12/03 06:23:43;;;;;;;33.25;13.55;;;7.60;59.10;;;;;;5039806;28;20037;-72
2022/12/03 06:26:15;;;;;;;28.05;13.85;;;7.60;59.20;;;;;;5043832;28;20107;-72
2022/12/03 06:28:45;;;;;;;26.83;13.63;;;7.60;59.10;;;;;;5047251;28;20026;-72
2022/12/03 06:31:13;;;;;;;24.17;13.85;;;7.60;59.20;;;;;;5030207;28;20481;-72
2022/12/03 06:33:39;;;;;;;29.23;14.90;;;7.60;59.20;;;;;;5041453;28;20053;-72
2022/12/03 06:36:05;;;;;;;21.27;12.35;;;7.60;59.10;;;;;;5023794;28;20022;-72
2022/12/03 06:38:31;;;;;;;20.02;11.27;;;7.60;58.80;;;;;;5043335;28;20042;-72
2022/12/03 06:40:57;;;;;;;19.50;10.80;;;7.60;59.00;;;;;;5043760;28;20389;-72
2022/12/03 06:43:23;;;;;;;20.65;11.98;;;7.60;59.60;;;;;;5041300;28;20053;-72
2022/12/03 06:45:48;;;;;;;16.33;10.40;;;7.60;59.10;;;;;;5025220;28;20025;-72
2022/12/03 06:48:14;;;;;;;17.10;10.40;;;7.60;59.10;;;;;;5042259;28;20025;-72
2022/12/03 06:50:40;;;;;;;16.23;10.27;;;7.60;59.10;;;;;;5043848;28;20025;-72
2022/12/03 06:53:06;;;;;;;17.30;11.48;;;7.60;59.10;;;;;;5042393;28;20036;-72
2022/12/03 06:55:32;;;;;;;16.88;10.20;;;7.60;58.90;;;;;;5041406;28;20025;-73
2022/12/03 06:58:00;;;;;;;16.38;10.20;;;7.60;58.70;;;;;;5040898;28;20112;-72
2022/12/03 07:00:26;;;;;;;15.77;10.10;;;7.60;58.50;;;;;;5055716;28;20120;-72
2022/12/03 07:02:52;;;;;;;15.18;10.45;;;7.70;58.70;;;;;;5072382;28;20123;-72
2022/12/03 07:05:20;;;;;;;15.65;9.98;;;7.70;58.60;;;;;;5070978;28;20032;-72
2022/12/03 07:07:54;;;;;;;18.90;12.20;;;7.70;58.70;;;;;;5072517;28;20066;-72
2022/12/03 07:10:28;;;;;;;24.00;13.07;;;7.70;58.70;;;;;;5054054;28;20101;-74
2022/12/03 07:12:53;;;;;;;23.50;13.32;;;7.70;58.60;;;;;;5071798;28;20078;-72
2022/12/03 07:15:19;;;;;;;22.60;13.48;;;7.70;58.70;;;;;;5053819;28;20016;-72
2022/12/03 07:17:45;;;;;;;19.42;12.10;;;7.70;58.80;;;;;;5071723;28;20085;-72
2022/12/03 07:20:11;;;;;;;19.02;11.68;;;7.80;58.90;;;;;;5053780;28;20108;-72
2022/12/03 07:22:37;;;;;;;18.45;11.95;;;7.80;58.90;;;;;;5071858;28;20036;-72
2022/12/03 07:25:04;;;;;;;18.65;11.15;;;7.80;58.80;;;;;;5054482;28;20047;-72
2022/12/03 07:27:30;;;;;;;16.65;10.55;;;7.80;58.70;;;;;;5053871;28;20376;-72
2022/12/03 07:29:58;;;;;;;18.35;12.20;;;7.80;58.60;;;;;;5050823;28;20115;-72
2022/12/03 07:32:27;;;;;;;23.55;11.45;;;7.80;58.70;;;;;;5059036;28;20449;-72
2022/12/03 07:34:56;;;;;;;18.48;11.30;;;7.90;58.60;;;;;;5053951;28;20071;-72
2022/12/03 07:37:27;;;;;;;17.60;11.10;;;7.90;58.60;;;;;;5071986;28;20028;-72
2022/12/03 07:40:01;;;;;;;17.88;10.68;;;7.90;58.70;;;;;;5052228;28;20082;-72
2022/12/03 07:42:29;;;;;;;17.48;11.38;;;7.90;58.60;;;;;;5053179;28;20040;-72
2022/12/03 07:44:58;;;;;;;16.63;11.15;;;8.00;58.80;;;;;;5075748;28;20841;-72
2022/12/03 07:47:26;;;;;;;17.90;11.98;;;8.00;58.70;;;;;;5073045;28;20027;-73
2022/12/03 07:49:52;;;;;;;15.82;10.52;;;8.00;58.50;;;;;;5066130;28;20060;-73
2022/12/03 07:52:23;;;;;;;16.67;10.30;;;8.00;58.50;;;;;;5074345;28;20541;-73
2022/12/03 07:54:51;;;;;;;15.77;9.90;;;8.00;58.40;;;;;;5071661;28;20048;-73
2022/12/03 07:57:20;;;;;;;24.52;10.23;;;8.10;58.60;;;;;;5075562;28;20038;-73
2022/12/03 07:59:48;;;;;;;15.05;9.98;;;8.10;58.50;;;;;;5074005;28;20470;-73
2022/12/03 08:02:16;;;;;;;16.48;10.40;;;8.10;58.40;;;;;;5057374;28;20453;-73
2022/12/03 08:04:46;;;;;;;16.55;10.07;;;8.10;58.30;;;;;;5075180;28;20056;-73
2022/12/03 08:07:12;;;;;;;19.25;10.60;;;8.10;58.20;;;;;;5075148;28;20028;-73
2022/12/03 08:09:41;;;;;;;18.30;10.77;;;8.00;58.10;;;;;;5075382;28;20039;-73
2022/12/03 08:12:16;;;;;;;16.70;10.20;;;8.00;58.00;;;;;;5075474;28;20438;-73
2022/12/03 08:14:42;;;;;;;24.70;11.85;;;8.00;58.20;;;;;;5075285;28;20027;-73
2022/12/03 08:17:12;;;;;;;17.05;10.77;;;8.00;58.30;;;;;;5075233;28;20013;-73
2022/12/03 08:19:38;;;;;;;20.17;11.25;;;8.00;58.40;;;;;;5057472;28;20097;-73
2022/12/03 08:22:25;;;;;;;16.63;10.15;;;8.00;58.20;;;;;;5075170;28;20374;-73
2022/12/03 08:24:50;;;;;;;17.23;10.23;;;8.00;58.20;;;;;;5053658;28;20080;-73
2022/12/03 08:27:18;;;;;;;19.00;10.48;;;8.10;58.20;;;;;;5057151;28;20024;-73
2022/12/03 08:29:47;;;;;;;13.32;8.90;;;8.10;57.90;;;;;;5071626;28;20024;-73
2022/12/03 08:32:13;;;;;;;14.63;9.82;;;8.20;57.80;;;;;;5056625;28;20035;-73
2022/12/03 08:34:41;;;;;;;16.42;9.80;;;8.20;57.70;;;;;;5056753;28;20052;-72
2022/12/03 08:37:17;;;;;;;14.13;9.43;;;8.20;57.40;;;;;;5074991;28;20017;-73
2022/12/03 08:39:51;;;;;;;13.38;9.18;;;8.20;57.30;;;;;;5054210;28;20021;-73
2022/12/03 08:42:43;;;;;;;14.05;9.27;;;8.30;57.30;;;;;;5056780;28;20127;-74
2022/12/03 08:45:38;;;;;;;10.88;7.88;;;8.30;57.10;;;;;;5072328;28;20043;-73
2022/12/03 08:48:17;;;;;;;13.70;8.77;;;8.40;57.10;;;;;;5071579;28;20079;-73
2022/12/03 08:50:47;;;;;;;17.95;8.75;;;8.40;56.60;;;;;;5056825;28;20460;-73
2022/12/03 08:53:24;;;;;;;19.55;9.35;;;8.40;56.30;;;;;;5055560;28;20032;-73
2022/12/03 08:55:57;;;;;;;15.88;8.73;;;8.40;56.30;;;;;;5071380;28;20468;-73
2022/12/03 08:58:32;;;;;;;16.15;10.18;;;8.40;56.30;;;;;;5056807;28;20021;-73
2022/12/03 09:01:11;;;;;;;12.15;8.35;;;8.40;56.30;;;;;;5070695;28;20048;-73
2022/12/03 09:03:41;;;;;;;13.77;8.95;;;8.50;56.20;;;;;;5072355;28;20039;-73
2022/12/03 09:06:07;;;;;;;14.50;8.73;;;8.50;56.20;;;;;;5072045;28;20110;-74
2022/12/03 09:08:33;;;;;;;13.15;8.45;;;8.50;55.80;;;;;;5074137;28;20078;-73
2022/12/03 09:11:00;;;;;;;14.73;8.40;;;8.40;56.10;;;;;;5074235;28;20025;-73
2022/12/03 09:13:25;;;;;;;13.85;8.77;;;8.40;56.40;;;;;;5073709;28;20377;-73
2022/12/03 09:15:54;;;;;;;12.55;7.70;;;8.50;56.50;;;;;;5074228;28;20023;-73
2022/12/03 09:18:23;;;;;;;16.25;8.75;;;8.50;56.70;;;;;;5073743;28;20028;-74
2022/12/03 09:20:51;;;;;;;12.98;8.43;;;8.50;56.70;;;;;;5056110;28;20047;-73
2022/12/03 09:23:23;;;;;;;17.83;9.40;;;8.50;56.60;;;;;;5074026;28;20033;-73
2022/12/03 09:25:52;;;;;;;13.35;7.97;;;8.60;56.50;;;;;;5056094;28;20020;-73
2022/12/03 09:28:23;;;;;;;14.98;7.72;;;8.60;56.40;;;;;;5055758;28;20025;-73
2022/12/03 09:30:48;;;;;;;18.30;10.93;;;8.50;56.30;;;;;;5070902;28;20032;-73
2022/12/03 09:33:14;;;;;;;14.48;8.60;;;8.50;56.50;;;;;;5055374;28;20025;-73
2022/12/03 09:35:45;;;;;;;14.82;8.25;;;8.50;56.70;;;;;;5055790;28;20471;-73
2022/12/03 09:38:11;;;;;;;13.77;8.38;;;8.50;56.70;;;;;;5073178;28;20059;-73
2022/12/03 09:40:36;;;;;;;13.68;9.05;;;8.50;56.80;;;;;;5072793;28;20060;-73
2022/12/03 09:43:05;;;;;;;12.30;7.65;;;8.50;56.90;;;;;;5072439;28;20403;-73
2022/12/03 09:45:31;;;;;;;14.52;8.38;;;8.50;57.10;;;;;;5074386;28;20464;-73
2022/12/03 09:47:57;;;;;;;18.63;9.32;;;8.50;57.20;;;;;;5055242;28;20085;-74
2022/12/03 09:50:27;;;;;;;22.17;8.55;;;8.50;57.30;;;;;;5071900;28;20024;-73
2022/12/03 09:52:55;;;;;;;13.77;8.65;;;8.60;57.40;;;;;;5055373;28;20025;-73
2022/12/03 09:55:30;;;;;;;11.05;7.78;;;8.60;57.20;;;;;;5073376;28;20103;-73
2022/12/03 09:58:00;;;;;;;13.18;8.32;;;8.70;57.10;;;;;;5053731;28;20517;-73
2022/12/03 10:00:29;;;;;;;15.93;7.75;;;8.70;56.90;;;;;;5071129;28;20048;-73
2022/12/03 10:03:03;;;;;;;12.88;7.97;;;8.80;56.50;;;;;;5069825;28;20140;-73
2022/12/03 10:05:29;;;;;;;11.32;7.18;;;8.80;56.40;;;;;;5072514;28;20032;-73
2022/12/03 10:08:04;;;;;;;11.50;7.72;;;8.80;56.50;;;;;;5072907;28;20024;-73
2022/12/03 10:10:36;;;;;;;11.90;7.68;;;8.90;56.30;;;;;;5072916;28;20028;-73
2022/12/03 10:13:09;;;;;;;14.85;8.35;;;8.90;56.50;;;;;;5069818;28;20040;-73
2022/12/03 10:15:35;;;;;;;21.95;12.00;;;9.00;56.30;;;;;;5072682;28;20025;-73
2022/12/03 10:18:19;;;;;;;18.73;10.52;;;9.00;56.20;;;;;;5073093;28;20031;-73
2022/12/03 10:20:48;;;;;;;21.55;12.05;;;9.00;56.10;;;;;;5071382;28;20059;-73
2022/12/03 10:23:26;;;;;;;17.35;10.68;;;9.10;56.10;;;;;;5072679;28;20028;-73
2022/12/03 10:25:57;;;;;;;15.73;10.15;;;9.20;55.90;;;;;;5071537;28;20087;-73
2022/12/03 10:28:45;;;;;;;14.07;8.15;;;9.20;55.90;;;;;;5071746;28;20028;-73
2022/12/03 10:31:13;;;;;;;14.45;8.98;;;9.30;56.10;;;;;;5064011;28;20601;-73
2022/12/03 10:33:43;;;;;;;14.65;8.65;;;9.40;56.30;;;;;;5054764;28;20119;-73
2022/12/03 10:36:25;;;;;;;14.75;8.20;;;9.40;55.70;;;;;;5054892;28;20111;-73
2022/12/03 10:39:15;;;;;;;13.15;7.65;;;9.50;55.50;;;;;;5066550;28;20035;-73
2022/12/03 10:41:44;;;;;;;12.68;7.20;;;9.60;55.30;;;;;;5065057;28;20457;-73
2022/12/03 10:44:19;;;;;;;12.20;7.22;;;9.60;55.10;;;;;;5054069;28;20078;-73
2022/12/03 10:47:03;;;;;;;26.38;13.82;;;9.70;55.00;;;;;;5052674;28;20020;-73
2022/12/03 10:50:06;;;;;;;23.35;11.40;;;9.70;54.80;;;;;;5027136;28;20041;-73
2022/12/03 10:52:35;;;;;;;15.95;9.60;;;9.80;54.50;;;;;;5071508;28;20392;-73
2022/12/03 10:55:04;;;;;;;14.27;8.88;;;9.80;54.50;;;;;;5072075;28;20430;-73
2022/12/03 10:57:30;;;;;;;16.55;8.77;;;9.90;54.60;;;;;;5071808;28;20465;-73
2022/12/03 10:59:55;;;;;;;10.98;7.93;;;9.90;54.70;;;;;;5052202;28;20076;-73
2022/12/03 11:02:25;;;;;;;16.85;9.43;;;9.90;54.80;;;;;;5069374;28;20040;-73
2022/12/03 11:04:59;;;;;;;12.63;8.48;;;10.00;54.80;;;;;;5071980;28;20032;-73
2022/12/03 11:07:27;;;;;;;14.90;8.93;;;10.00;54.80;;;;;;5071937;28;20028;-73
2022/12/03 11:09:57;;;;;;;15.48;8.98;;;10.10;54.80;;;;;;5051606;28;20033;-73
2022/12/03 11:12:33;;;;;;;13.65;8.90;;;10.10;54.70;;;;;;5054034;28;20021;-72
2022/12/03 11:15:06;;;;;;;14.85;8.77;;;10.20;54.30;;;;;;5065419;28;20032;-73
2022/12/03 11:17:46;;;;;;;15.40;9.23;;;10.20;54.10;;;;;;5052844;28;20492;-73
2022/12/03 11:20:32;;;;;;;14.70;8.80;;;10.20;54.20;;;;;;5035546;28;20116;-73
2022/12/03 11:23:03;;;;;;;14.25;8.82;;;10.20;54.30;;;;;;5052979;28;20419;-73
2022/12/03 11:25:44;;;;;;;17.85;9.10;;;10.20;54.10;;;;;;5053184;28;20032;-73
2022/12/03 11:28:16;;;;;;;17.75;9.38;;;10.20;54.00;;;;;;5035555;28;20029;-73
2022/12/03 11:30:48;;;;;;;13.23;8.15;;;10.20;54.20;;;;;;5053367;28;20391;-73
2022/12/03 11:33:29;;;;;;;22.58;10.02;;;10.20;54.00;;;;;;5053259;28;20035;-73
2022/12/03 11:36:04;;;;;;;22.65;10.85;;;10.20;53.90;;;;;;5053244;28;20111;-73
2022/12/03 11:38:36;;;;;;;15.77;9.57;;;10.20;53.90;;;;;;5053235;28;20025;-73
2022/12/03 11:41:14;;;;;;;15.77;9.43;;;10.20;54.00;;;;;;5053127;28;20040;-73
2022/12/03 11:43:55;;;;;;;13.02;8.73;;;10.20;53.80;;;;;;5062195;28;20033;-73
2022/12/03 11:46:45;;;;;;;16.42;9.52;;;10.20;53.70;;;;;;5073200;28;20025;-73
2022/12/03 11:49:29;;;;;;;11.63;8.15;;;10.20;53.70;;;;;;5071516;28;20024;-73
2022/12/03 11:51:59;;;;;;;15.55;10.20;;;10.20;53.80;;;;;;5055210;28;20086;-73
2022/12/03 11:54:25;;;;;;;13.93;10.05;;;10.30;53.90;;;;;;5051831;28;20031;-73
2022/12/03 11:56:52;;;;;;;14.23;8.95;;;10.30;53.60;;;;;;5047354;28;20033;-72
2022/12/03 11:59:18;;;;;;;17.63;9.40;;;10.30;53.50;;;;;;5058171;28;20108;-73
2022/12/03 12:01:44;;;;;;;14.55;9.50;;;10.20;53.10;;;;;;5056286;28;20056;-72
2022/12/03 12:04:34;;;;;;;14.32;8.95;;;10.20;53.10;;;;;;5052679;28;20481;-73
2022/12/03 12:07:02;;;;;;;12.43;8.40;;;10.20;53.30;;;;;;5053026;28;20159;-72
2022/12/03 12:09:49;;;;;;;11.68;8.07;;;10.10;53.60;;;;;;5052997;28;20111;-73
2022/12/03 12:12:30;;;;;;;11.77;7.68;;;10.10;53.90;;;;;;5062854;28;20073;-72
2022/12/03 12:14:59;;;;;;;13.18;8.25;;;10.20;53.90;;;;;;5054808;28;20025;-73
2022/12/03 12:17:33;;;;;;;13.40;8.35;;;10.20;54.00;;;;;;5054754;28;20536;-73
2022/12/03 12:20:24;;;;;;;13.85;8.63;;;10.20;53.50;;;;;;5055000;28;20060;-73
2022/12/03 12:22:54;;;;;;;11.55;7.43;;;10.20;53.40;;;;;;5073052;28;20082;-73
2022/12/03 12:25:29;;;;;;;13.40;8.32;;;10.20;53.60;;;;;;5072818;28;20028;-73
2022/12/03 12:28:00;;;;;;;13.40;8.43;;;10.10;53.40;;;;;;5072091;28;20494;-73
2022/12/03 12:30:31;;;;;;;22.25;13.13;;;10.10;53.70;;;;;;5075931;28;20103;-73
2022/12/03 12:33:09;;;;;;;13.32;8.73;;;10.10;53.60;;;;;;5070448;28;20111;-73
2022/12/03 12:35:35;;;;;;;14.88;9.77;;;10.10;53.50;;;;;;5053851;28;20405;-73
2022/12/03 12:38:10;;;;;;;18.92;12.02;;;10.10;53.40;;;;;;5074133;28;20273;-73
2022/12/03 12:40:40;;;;;;;15.95;10.55;;;10.00;53.40;;;;;;5052968;28;20039;-73
2022/12/03 12:43:26;;;;;;;13.13;8.45;;;10.00;53.50;;;;;;5052256;28;20025;-73
2022/12/03 12:45:55;;;;;;;13.57;9.20;;;9.90;53.50;;;;;;5073943;28;20028;-73
2022/12/03 12:48:31;;;;;;;16.45;8.90;;;9.90;53.70;;;;;;5056270;28;20021;-73
2022/12/03 12:51:19;;;;;;;15.05;10.25;;;9.90;53.80;;;;;;5049522;28;20374;-73
2022/12/03 12:53:45;;;;;;;13.10;8.10;;;9.90;54.80;;;;;;5055532;28;20032;-73
2022/12/03 12:56:29;;;;;;;13.88;8.50;;;10.00;54.30;;;;;;5056442;28;20029;-73
2022/12/03 12:58:59;;;;;;;12.32;8.20;;;10.00;54.30;;;;;;5055890;28;20111;-73
2022/12/03 13:01:30;;;;;;;12.82;8.07;;;10.00;54.50;;;;;;5050839;28;20069;-73
2022/12/03 13:04:02;;;;;;;16.95;10.32;;;10.00;54.50;;;;;;5071788;28;20494;-73
2022/12/03 13:06:31;;;;;;;13.45;8.90;;;10.10;54.60;;;;;;5074488;28;20115;-73
2022/12/03 13:09:04;;;;;;;15.70;8.18;;;10.10;54.50;;;;;;5071589;28;20025;-73
2022/12/03 13:11:40;;;;;;;19.80;9.02;;;10.10;54.60;;;;;;5068846;28;20461;-73
2022/12/03 13:14:19;;;;;;;14.50;7.85;;;10.20;54.60;;;;;;5054713;28;20040;-73